sensor_id;sensor_type;location;lat;lon;timestamp;pressure;altitude;pressure_sealevel;temperature
13497;BMP180;6820;49.374;8.452;2023-02-03T00:00:31;101857.47;;;15.16
13497;BMP180;6820;49.374;8.452;2023-02-03T00:04:33;101861.34;;;15.23
13497;BMP180;6820;49.374;8.452;2023-02-03T00:08:35;101857.19;;;15.24
13497;BMP180;6820;49.374;8.452;2023-02-03T00:12:38;101858.31;;;15.28
13497;BMP180;6820;49.374;8.452;2023-02-03T00:16:40;101850.63;;;15.28
13497;BMP180;6820;49.374;8.452;2023-02-03T00:20:42;101863.41;;;15.28
13497;BMP180;6820;49.374;8.452;2023-02-03T00:24:43;101861.13;;;15.32
13497;BMP180;6820;49.374;8.452;2023-02-03T00:28:45;101859.38;;;15.31
13497;BMP180;6820;49.374;8.452;2023-02-03T00:32:48;101860.44;;;15.35
13497;BMP180;6820;49.374;8.452;2023-02-03T00:36:49;101861.25;;;15.34
13497;BMP180;6820;49.374;8.452;2023-02-03T00:40:54;101868.03;;;15.33
13497;BMP180;6820;49.374;8.452;2023-02-03T00:44:56;101862.91;;;15.33
13497;BMP180;6820;49.374;8.452;2023-02-03T00:48:58;101842.47;;;15.33
13497;BMP180;6820;49.374;8.452;2023-02-03T00:52:59;101812.50;;;15.31
13497;BMP180;6820;49.374;8.452;2023-02-03T00:57:01;101823.22;;;15.25
13497;BMP180;6820;49.374;8.452;2023-02-03T01:01:03;101814.66;;;15.12
13497;BMP180;6820;49.374;8.452;2023-02-03T01:05:05;101829.84;;;14.98
13497;BMP180;6820;49.374;8.452;2023-02-03T01:09:06;101846.91;;;14.86
13497;BMP180;6820;49.374;8.452;2023-02-03T01:13:08;101860.47;;;14.85
13497;BMP180;6820;49.374;8.452;2023-02-03T01:17:10;101868.31;;;14.88
13497;BMP180;6820;49.374;8.452;2023-02-03T01:21:31;101863.94;;;14.98
13497;BMP180;6820;49.374;8.452;2023-02-03T01:25:34;101844.56;;;15.02
13497;BMP180;6820;49.374;8.452;2023-02-03T01:29:36;101836.03;;;15.01
13497;BMP180;6820;49.374;8.452;2023-02-03T01:33:38;101803.53;;;14.99
13497;BMP180;6820;49.374;8.452;2023-02-03T01:37:42;101787.91;;;14.94
13497;BMP180;6820;49.374;8.452;2023-02-03T01:41:44;101789.38;;;14.91
13497;BMP180;6820;49.374;8.452;2023-02-03T01:45:46;101766.41;;;14.91
13497;BMP180;6820;49.374;8.452;2023-02-03T01:54:38;101784.84;;;14.87
13497;BMP180;6820;49.374;8.452;2023-02-03T01:58:42;101799.78;;;14.94
13497;BMP180;6820;49.374;8.452;2023-02-03T02:02:46;101787.22;;;14.97
13497;BMP180;6820;49.374;8.452;2023-02-03T02:06:49;101772.78;;;14.97
13497;BMP180;6820;49.374;8.452;2023-02-03T02:10:52;101780.16;;;14.93
13497;BMP180;6820;49.374;8.452;2023-02-03T02:14:54;101778.47;;;14.93
13497;BMP180;6820;49.374;8.452;2023-02-03T02:19:14;101767.28;;;14.92
13497;BMP180;6820;49.374;8.452;2023-02-03T02:32:01;101764.41;;;14.87
13497;BMP180;6820;49.374;8.452;2023-02-03T02:40:35;101747.84;;;14.81
13497;BMP180;6820;49.374;8.452;2023-02-03T02:44:44;101751.47;;;14.84
13497;BMP180;6820;49.374;8.452;2023-02-03T02:49:18;101741.38;;;14.86
13497;BMP180;6820;49.374;8.452;2023-02-03T02:53:24;101731.22;;;14.87
13497;BMP180;6820;49.374;8.452;2023-02-03T02:57:28;101734.69;;;14.88
13497;BMP180;6820;49.374;8.452;2023-02-03T03:01:33;101757.56;;;14.86
13497;BMP180;6820;49.374;8.452;2023-02-03T03:05:35;101782.41;;;14.89
13497;BMP180;6820;49.374;8.452;2023-02-03T03:09:44;101774.75;;;14.89
13497;BMP180;6820;49.374;8.452;2023-02-03T03:13:53;101770.63;;;14.91
13497;BMP180;6820;49.374;8.452;2023-02-03T03:22:08;101798.22;;;14.96
13497;BMP180;6820;49.374;8.452;2023-02-03T03:26:23;101818.84;;;14.99
13497;BMP180;6820;49.374;8.452;2023-02-03T03:30:32;101824.84;;;14.99
13497;BMP180;6820;49.374;8.452;2023-02-03T03:34:35;101840.16;;;14.99
13497;BMP180;6820;49.374;8.452;2023-02-03T03:38:43;101824.75;;;14.98
13497;BMP180;6820;49.374;8.452;2023-02-03T03:42:53;101821.19;;;14.96
13497;BMP180;6820;49.374;8.452;2023-02-03T03:47:33;101812.75;;;14.97
13497;BMP180;6820;49.374;8.452;2023-02-03T03:51:41;101803.59;;;15.00
13497;BMP180;6820;49.374;8.452;2023-02-03T03:55:48;101794.50;;;15.04
13497;BMP180;6820;49.374;8.452;2023-02-03T03:59:51;101774.94;;;15.04
13497;BMP180;6820;49.374;8.452;2023-02-03T04:03:59;101796.19;;;15.03
13497;BMP180;6820;49.374;8.452;2023-02-03T04:08:02;101790.75;;;14.99
13497;BMP180;6820;49.374;8.452;2023-02-03T04:12:04;101777.69;;;14.94
13497;BMP180;6820;49.374;8.452;2023-02-03T04:16:07;101781.91;;;14.94
13497;BMP180;6820;49.374;8.452;2023-02-03T04:20:09;101790.84;;;14.88
13497;BMP180;6820;49.374;8.452;2023-02-03T04:24:11;101785.94;;;14.91
13497;BMP180;6820;49.374;8.452;2023-02-03T04:28:13;101797.41;;;14.84
13497;BMP180;6820;49.374;8.452;2023-02-03T04:32:15;101778.97;;;14.88
13497;BMP180;6820;49.374;8.452;2023-02-03T04:36:16;101765.41;;;14.89
13497;BMP180;6820;49.374;8.452;2023-02-03T04:40:18;101777.50;;;14.92
13497;BMP180;6820;49.374;8.452;2023-02-03T04:44:19;101780.16;;;14.93
13497;BMP180;6820;49.374;8.452;2023-02-03T04:48:21;101803.03;;;14.92
13497;BMP180;6820;49.374;8.452;2023-02-03T04:52:23;101796.16;;;14.91
13497;BMP180;6820;49.374;8.452;2023-02-03T04:56:25;101786.91;;;14.92
13497;BMP180;6820;49.374;8.452;2023-02-03T05:00:28;101780.34;;;14.96
13497;BMP180;6820;49.374;8.452;2023-02-03T05:04:30;101778.78;;;14.98
13497;BMP180;6820;49.374;8.452;2023-02-03T05:08:32;101764.16;;;14.95
13497;BMP180;6820;49.374;8.452;2023-02-03T05:12:34;101770.16;;;14.96
13497;BMP180;6820;49.374;8.452;2023-02-03T05:16:35;101777.00;;;14.97
13497;BMP180;6820;49.374;8.452;2023-02-03T05:20:37;101784.09;;;15.01
13497;BMP180;6820;49.374;8.452;2023-02-03T05:24:39;101773.97;;;15.02
13497;BMP180;6820;49.374;8.452;2023-02-03T05:28:40;101779.88;;;15.01
13497;BMP180;6820;49.374;8.452;2023-02-03T05:32:42;101776.03;;;15.08
13497;BMP180;6820;49.374;8.452;2023-02-03T05:36:43;101774.94;;;15.04
13497;BMP180;6820;49.374;8.452;2023-02-03T05:40:48;101797.94;;;15.04
13497;BMP180;6820;49.374;8.452;2023-02-03T05:45:09;101787.59;;;15.03
13497;BMP180;6820;49.374;8.452;2023-02-03T05:49:10;101790.16;;;15.03
13497;BMP180;6820;49.374;8.452;2023-02-03T05:53:12;101789.41;;;15.04
13497;BMP180;6820;49.374;8.452;2023-02-03T05:57:14;101785.06;;;15.03
13497;BMP180;6820;49.374;8.452;2023-02-03T06:01:15;101783.00;;;14.97
13497;BMP180;6820;49.374;8.452;2023-02-03T06:05:17;101770.22;;;14.97
13497;BMP180;6820;49.374;8.452;2023-02-03T06:09:19;101758.25;;;14.96
13497;BMP180;6820;49.374;8.452;2023-02-03T06:13:21;101769.25;;;14.95
13497;BMP180;6820;49.374;8.452;2023-02-03T06:17:22;101747.75;;;14.92
13497;BMP180;6820;49.374;8.452;2023-02-03T06:21:24;101757.75;;;14.89
13497;BMP180;6820;49.374;8.452;2023-02-03T06:25:25;101754.22;;;14.87
13497;BMP180;6820;49.374;8.452;2023-02-03T06:29:27;101744.91;;;14.88
13497;BMP180;6820;49.374;8.452;2023-02-03T06:33:29;101740.56;;;14.87
13497;BMP180;6820;49.374;8.452;2023-02-03T06:37:30;101755.69;;;14.84
13497;BMP180;6820;49.374;8.452;2023-02-03T06:41:32;101768.94;;;14.78
13497;BMP180;6820;49.374;8.452;2023-02-03T06:45:34;101762.16;;;14.79
13497;BMP180;6820;49.374;8.452;2023-02-03T06:49:36;101767.19;;;14.77
13497;BMP180;6820;49.374;8.452;2023-02-03T06:53:37;101768.94;;;14.78
13497;BMP180;6820;49.374;8.452;2023-02-03T06:57:45;101754.91;;;14.72
13497;BMP180;6820;49.374;8.452;2023-02-03T07:01:47;101752.53;;;14.62
13497;BMP180;6820;49.374;8.452;2023-02-03T07:05:49;101747.41;;;14.62
13497;BMP180;6820;49.374;8.452;2023-02-03T07:09:50;101765.88;;;14.58
13497;BMP180;6820;49.374;8.452;2023-02-03T07:13:53;101769.00;;;14.54
13497;BMP180;6820;49.374;8.452;2023-02-03T07:17:54;101785.66;;;14.49
13497;BMP180;6820;49.374;8.452;2023-02-03T07:21:56;101792.63;;;14.52
13497;BMP180;6820;49.374;8.452;2023-02-03T07:25:58;101792.06;;;14.56
13497;BMP180;6820;49.374;8.452;2023-02-03T07:30:00;101790.59;;;14.59
13497;BMP180;6820;49.374;8.452;2023-02-03T07:34:02;101795.69;;;14.59
13497;BMP180;6820;49.374;8.452;2023-02-03T07:38:03;101817.38;;;14.65
13497;BMP180;6820;49.374;8.452;2023-02-03T07:42:05;101800.31;;;14.64
13497;BMP180;6820;49.374;8.452;2023-02-03T07:46:10;101792.06;;;14.68
13497;BMP180;6820;49.374;8.452;2023-02-03T07:50:12;101807.38;;;14.68
13497;BMP180;6820;49.374;8.452;2023-02-03T07:54:14;101803.47;;;14.73
13497;BMP180;6820;49.374;8.452;2023-02-03T07:58:15;101802.72;;;14.74
13497;BMP180;6820;49.374;8.452;2023-02-03T08:02:17;101800.25;;;14.76
13497;BMP180;6820;49.374;8.452;2023-02-03T08:06:19;101832.66;;;14.77
13497;BMP180;6820;49.374;8.452;2023-02-03T08:10:20;101814.00;;;14.78
13497;BMP180;6820;49.374;8.452;2023-02-03T08:14:22;101810.09;;;14.83
13497;BMP180;6820;49.374;8.452;2023-02-03T08:18:24;101818.03;;;14.87
13497;BMP180;6820;49.374;8.452;2023-02-03T08:22:26;101828.47;;;14.90
13497;BMP180;6820;49.374;8.452;2023-02-03T08:27:42;101836.59;;;14.85
13497;BMP180;6820;49.374;8.452;2023-02-03T08:31:44;101822.44;;;14.90
13497;BMP180;6820;49.374;8.452;2023-02-03T08:35:47;101837.97;;;14.92
13497;BMP180;6820;49.374;8.452;2023-02-03T08:39:50;101843.38;;;14.97
13497;BMP180;6820;49.374;8.452;2023-02-03T08:43:52;101834.97;;;14.98
13497;BMP180;6820;49.374;8.452;2023-02-03T08:47:54;101818.44;;;15.06
13497;BMP180;6820;49.374;8.452;2023-02-03T08:51:57;101804.66;;;15.15
13497;BMP180;6820;49.374;8.452;2023-02-03T08:55:59;101805.44;;;15.27
13497;BMP180;6820;49.374;8.452;2023-02-03T09:00:04;101818.63;;;15.33
13497;BMP180;6820;49.374;8.452;2023-02-03T09:04:06;101816.06;;;15.33
13497;BMP180;6820;49.374;8.452;2023-02-03T09:08:09;101808.47;;;15.34
13497;BMP180;6820;49.374;8.452;2023-02-03T09:12:11;101803.47;;;15.36
13497;BMP180;6820;49.374;8.452;2023-02-03T09:16:15;101804.44;;;15.38
13497;BMP180;6820;49.374;8.452;2023-02-03T09:20:18;101808.78;;;15.39
13497;BMP180;6820;49.374;8.452;2023-02-03T09:24:19;101795.50;;;15.44
13497;BMP180;6820;49.374;8.452;2023-02-03T09:28:21;101793.25;;;15.49
13497;BMP180;6820;49.374;8.452;2023-02-03T09:32:23;101798.44;;;15.50
13497;BMP180;6820;49.374;8.452;2023-02-03T09:36:25;101797.06;;;15.55
13497;BMP180;6820;49.374;8.452;2023-02-03T09:40:30;101801.19;;;15.66
13497;BMP180;6820;49.374;8.452;2023-02-03T09:44:50;101811.78;;;15.72
13497;BMP180;6820;49.374;8.452;2023-02-03T09:49:01;101810.34;;;15.62
13497;BMP180;6820;49.374;8.452;2023-02-03T09:53:17;101815.03;;;15.56
13497;BMP180;6820;49.374;8.452;2023-02-03T09:57:26;101820.44;;;15.61
13497;BMP180;6820;49.374;8.452;2023-02-03T10:01:37;101810.41;;;15.64
13497;BMP180;6820;49.374;8.452;2023-02-03T10:06:03;101797.44;;;15.74
13497;BMP180;6820;49.374;8.452;2023-02-03T10:10:23;101792.28;;;15.86
13497;BMP180;6820;49.374;8.452;2023-02-03T10:14:30;101791.53;;;16.02
13497;BMP180;6820;49.374;8.452;2023-02-03T10:18:44;101811.91;;;16.00
13497;BMP180;6820;49.374;8.452;2023-02-03T10:22:55;101821.78;;;15.94
13497;BMP180;6820;49.374;8.452;2023-02-03T10:26:58;101818.03;;;15.89
13497;BMP180;6820;49.374;8.452;2023-02-03T10:31:02;101827.41;;;15.89
13497;BMP180;6820;49.374;8.452;2023-02-03T10:35:12;101794.53;;;15.95
13497;BMP180;6820;49.374;8.452;2023-02-03T10:39:26;101812.38;;;16.08
13497;BMP180;6820;49.374;8.452;2023-02-03T10:43:30;101792.31;;;16.14
13497;BMP180;6820;49.374;8.452;2023-02-03T10:47:52;101781.75;;;16.22
13497;BMP180;6820;49.374;8.452;2023-02-03T10:52:00;101777.53;;;16.22
13497;BMP180;6820;49.374;8.452;2023-02-03T10:56:15;101767.41;;;16.24
13497;BMP180;6820;49.374;8.452;2023-02-03T11:00:29;101764.66;;;16.21
13497;BMP180;6820;49.374;8.452;2023-02-03T11:04:32;101751.19;;;16.11
13497;BMP180;6820;49.374;8.452;2023-02-03T11:08:36;101737.53;;;16.10
13497;BMP180;6820;49.374;8.452;2023-02-03T11:12:38;101739.66;;;16.17
13497;BMP180;6820;49.374;8.452;2023-02-03T11:16:39;101738.91;;;16.18
13497;BMP180;6820;49.374;8.452;2023-02-03T11:20:44;101726.19;;;16.19
13497;BMP180;6820;49.374;8.452;2023-02-03T11:24:46;101732.22;;;16.34
13497;BMP180;6820;49.374;8.452;2023-02-03T11:28:49;101744.91;;;16.33
13497;BMP180;6820;49.374;8.452;2023-02-03T11:32:52;101725.25;;;16.32
13497;BMP180;6820;49.374;8.452;2023-02-03T11:36:54;101727.09;;;16.34
13497;BMP180;6820;49.374;8.452;2023-02-03T11:40:59;101743.56;;;16.25
13497;BMP180;6820;49.374;8.452;2023-02-03T11:45:49;101756.19;;;16.09
13497;BMP180;6820;49.374;8.452;2023-02-03T11:50:15;101768.63;;;16.03
13497;BMP180;6820;49.374;8.452;2023-02-03T11:54:50;101790.41;;;15.97
13497;BMP180;6820;49.374;8.452;2023-02-03T12:12:15;101775.75;;;15.94
13497;BMP180;6820;49.374;8.452;2023-02-03T12:16:41;101764.34;;;15.89
13497;BMP180;6820;49.374;8.452;2023-02-03T12:26:15;101717.81;;;15.95
13497;BMP180;6820;49.374;8.452;2023-02-03T12:30:24;101693.13;;;15.95
13497;BMP180;6820;49.374;8.452;2023-02-03T12:39:03;101685.91;;;16.03
13497;BMP180;6820;49.374;8.452;2023-02-03T12:51:34;101682.38;;;16.42
13497;BMP180;6820;49.374;8.452;2023-02-03T12:55:51;101696.22;;;16.46
13497;BMP180;6820;49.374;8.452;2023-02-03T13:04:32;101659.69;;;16.48
13497;BMP180;6820;49.374;8.452;2023-02-03T13:08:38;101653.88;;;16.50
13497;BMP180;6820;49.374;8.452;2023-02-03T13:12:55;101627.47;;;16.51
13497;BMP180;6820;49.374;8.452;2023-02-03T13:17:04;101622.28;;;16.50
13497;BMP180;6820;49.374;8.452;2023-02-03T13:21:10;101611.72;;;16.60
13497;BMP180;6820;49.374;8.452;2023-02-03T13:34:31;101621.09;;;16.59
13497;BMP180;6820;49.374;8.452;2023-02-03T13:43:02;101616.25;;;16.49
13497;BMP180;6820;49.374;8.452;2023-02-03T13:47:14;101614.06;;;16.41
13497;BMP180;6820;49.374;8.452;2023-02-03T13:51:20;101623.69;;;16.45
13497;BMP180;6820;49.374;8.452;2023-02-03T14:07:39;101620.00;;;16.26
13497;BMP180;6820;49.374;8.452;2023-02-03T14:11:43;101661.63;;;16.23
13497;BMP180;6820;49.374;8.452;2023-02-03T14:16:21;101668.22;;;16.20
13497;BMP180;6820;49.374;8.452;2023-02-03T14:24:39;101692.66;;;16.15
13497;BMP180;6820;49.374;8.452;2023-02-03T14:28:44;101692.09;;;16.06
13497;BMP180;6820;49.374;8.452;2023-02-03T14:32:47;101697.38;;;16.09
13497;BMP180;6820;49.374;8.452;2023-02-03T14:36:52;101701.22;;;16.16
13497;BMP180;6820;49.374;8.452;2023-02-03T14:40:58;101694.31;;;16.15
13497;BMP180;6820;49.374;8.452;2023-02-03T14:45:14;101693.25;;;16.11
13497;BMP180;6820;49.374;8.452;2023-02-03T14:54:00;101695.34;;;16.04
13497;BMP180;6820;49.374;8.452;2023-02-03T14:58:33;101679.91;;;16.02
13497;BMP180;6820;49.374;8.452;2023-02-03T15:02:35;101687.66;;;16.04
13497;BMP180;6820;49.374;8.452;2023-02-03T15:06:56;101690.56;;;16.10
13497;BMP180;6820;49.374;8.452;2023-02-03T15:11:00;101700.03;;;16.11
13497;BMP180;6820;49.374;8.452;2023-02-03T15:15:25;101684.59;;;16.09
13497;BMP180;6820;49.374;8.452;2023-02-03T15:19:33;101678.13;;;16.01
13497;BMP180;6820;49.374;8.452;2023-02-03T15:23:40;101687.19;;;15.96
13497;BMP180;6820;49.374;8.452;2023-02-03T15:27:43;101680.44;;;15.97
13497;BMP180;6820;49.374;8.452;2023-02-03T15:31:48;101677.88;;;15.97
13497;BMP180;6820;49.374;8.452;2023-02-03T15:36:00;101682.38;;;16.01
13497;BMP180;6820;49.374;8.452;2023-02-03T15:40:14;101670.81;;;15.93
13497;BMP180;6820;49.374;8.452;2023-02-03T15:44:25;101680.84;;;15.90
13497;BMP180;6820;49.374;8.452;2023-02-03T15:52:40;101670.31;;;15.71
13497;BMP180;6820;49.374;8.452;2023-02-03T15:56:49;101671.53;;;15.63
13497;BMP180;6820;49.374;8.452;2023-02-03T16:01:00;101680.31;;;15.54
13497;BMP180;6820;49.374;8.452;2023-02-03T16:05:09;101688.00;;;15.54
13497;BMP180;6820;49.374;8.452;2023-02-03T16:09:43;101705.78;;;15.53
13497;BMP180;6820;49.374;8.452;2023-02-03T16:13:45;101688.56;;;15.50
13497;BMP180;6820;49.374;8.452;2023-02-03T16:17:53;101679.84;;;15.47
13497;BMP180;6820;49.374;8.452;2023-02-03T16:21:57;101668.94;;;15.49
13497;BMP180;6820;49.374;8.452;2023-02-03T16:30:20;101685.16;;;15.50
13497;BMP180;6820;49.374;8.452;2023-02-03T16:34:41;101701.16;;;15.47
13497;BMP180;6820;49.374;8.452;2023-02-03T16:39:05;101721.31;;;15.43
13497;BMP180;6820;49.374;8.452;2023-02-03T16:43:25;101729.84;;;15.43
13497;BMP180;6820;49.374;8.452;2023-02-03T16:47:46;101721.31;;;15.43
13497;BMP180;6820;49.374;8.452;2023-02-03T16:52:06;101741.66;;;15.41
13497;BMP180;6820;49.374;8.452;2023-02-03T16:56:09;101742.25;;;15.37
13497;BMP180;6820;49.374;8.452;2023-02-03T17:00:13;101736.94;;;15.34
13497;BMP180;6820;49.374;8.452;2023-02-03T17:04:14;101745.59;;;15.36
13497;BMP180;6820;49.374;8.452;2023-02-03T17:08:18;101747.34;;;15.37
13497;BMP180;6820;49.374;8.452;2023-02-03T17:12:20;101735.38;;;15.36
13497;BMP180;6820;49.374;8.452;2023-02-03T17:16:24;101731.53;;;15.43
13497;BMP180;6820;49.374;8.452;2023-02-03T17:20:26;101735.06;;;15.45
13497;BMP180;6820;49.374;8.452;2023-02-03T17:24:27;101742.44;;;15.40
13497;BMP180;6820;49.374;8.452;2023-02-03T17:28:29;101726.72;;;15.34
13497;BMP180;6820;49.374;8.452;2023-02-03T17:32:31;101742.25;;;15.37
13497;BMP180;6820;49.374;8.452;2023-02-03T17:36:32;101742.25;;;15.37
13497;BMP180;6820;49.374;8.452;2023-02-03T17:40:37;101743.13;;;15.38
13497;BMP180;6820;49.374;8.452;2023-02-03T17:44:58;101743.44;;;15.42
13497;BMP180;6820;49.374;8.452;2023-02-03T17:49:17;101752.16;;;15.46
13497;BMP180;6820;49.374;8.452;2023-02-03T17:53:36;101752.16;;;15.46
13497;BMP180;6820;49.374;8.452;2023-02-03T17:57:39;101738.09;;;15.52
13497;BMP180;6820;49.374;8.452;2023-02-03T18:01:41;101745.84;;;15.53
13497;BMP180;6820;49.374;8.452;2023-02-03T18:05:50;101757.16;;;15.57
13497;BMP180;6820;49.374;8.452;2023-02-03T18:09:51;101763.22;;;15.59
13497;BMP180;6820;49.374;8.452;2023-02-03T18:13:53;101751.44;;;15.61
13497;BMP180;6820;49.374;8.452;2023-02-03T18:17:55;101754.97;;;15.63
13497;BMP180;6820;49.374;8.452;2023-02-03T18:21:56;101753.59;;;15.68
13497;BMP180;6820;49.374;8.452;2023-02-03T18:26:00;101757.03;;;15.68
13497;BMP180;6820;49.374;8.452;2023-02-03T18:30:02;101752.13;;;15.71
13497;BMP180;6820;49.374;8.452;2023-02-03T18:34:04;101746.13;;;15.71
13497;BMP180;6820;49.374;8.452;2023-02-03T18:38:06;101739.03;;;15.67
13497;BMP180;6820;49.374;8.452;2023-02-03T18:42:08;101741.50;;;15.65
13497;BMP180;6820;49.374;8.452;2023-02-03T18:46:12;101749.00;;;15.62
13497;BMP180;6820;49.374;8.452;2023-02-03T18:50:14;101760.09;;;15.63
13497;BMP180;6820;49.374;8.452;2023-02-03T18:54:15;101773.75;;;15.63
13497;BMP180;6820;49.374;8.452;2023-02-03T18:58:17;101754.38;;;15.67
13497;BMP180;6820;49.374;8.452;2023-02-03T19:02:19;101755.47;;;15.70
13497;BMP180;6820;49.374;8.452;2023-02-03T19:06:23;101769.13;;;15.71
13497;BMP180;6820;49.374;8.452;2023-02-03T19:10:24;101759.28;;;15.77
13497;BMP180;6820;49.374;8.452;2023-02-03T19:14:26;101764.38;;;15.77
13497;BMP180;6820;49.374;8.452;2023-02-03T19:18:28;101751.72;;;15.78
13497;BMP180;6820;49.374;8.452;2023-02-03T19:22:31;101763.81;;;15.81
13497;BMP180;6820;49.374;8.452;2023-02-03T19:26:33;101768.91;;;15.81
13497;BMP180;6820;49.374;8.452;2023-02-03T19:30:35;101782.75;;;15.84
13497;BMP180;6820;49.374;8.452;2023-02-03T19:34:37;101780.19;;;15.84
13497;BMP180;6820;49.374;8.452;2023-02-03T19:38:39;101786.66;;;15.92
13497;BMP180;6820;49.374;8.452;2023-02-03T19:42:40;101796.09;;;15.93
13497;BMP180;6820;49.374;8.452;2023-02-03T19:46:42;101799.72;;;15.96
13497;BMP180;6820;49.374;8.452;2023-02-03T19:50:47;101800.81;;;16.00
13497;BMP180;6820;49.374;8.452;2023-02-03T19:54:49;101798.25;;;16.00
13497;BMP180;6820;49.374;8.452;2023-02-03T19:58:54;101793.13;;;16.00
13497;BMP180;6820;49.374;8.452;2023-02-03T20:02:55;101801.88;;;16.03
13497;BMP180;6820;49.374;8.452;2023-02-03T20:06:57;101801.25;;;16.07
13497;BMP180;6820;49.374;8.452;2023-02-03T20:10:59;101804.91;;;16.11
13497;BMP180;6820;49.374;8.452;2023-02-03T20:15:01;101804.78;;;16.09
13497;BMP180;6820;49.374;8.452;2023-02-03T20:19:03;101810.09;;;16.12
13497;BMP180;6820;49.374;8.452;2023-02-03T20:23:04;101806.81;;;16.13
13497;BMP180;6820;49.374;8.452;2023-02-03T20:27:06;101804.31;;;16.15
13497;BMP180;6820;49.374;8.452;2023-02-03T20:31:08;101815.53;;;16.16
13497;BMP180;6820;49.374;8.452;2023-02-03T20:35:09;101814.03;;;16.20
13497;BMP180;6820;49.374;8.452;2023-02-03T20:39:17;101812.34;;;16.20
13497;BMP180;6820;49.374;8.452;2023-02-03T20:43:24;101821.72;;;16.20
13497;BMP180;6820;49.374;8.452;2023-02-03T20:47:26;101829.56;;;16.23
13497;BMP180;6820;49.374;8.452;2023-02-03T20:51:28;101834.59;;;16.21
13497;BMP180;6820;49.374;8.452;2023-02-03T20:55:29;101836.47;;;16.24
13497;BMP180;6820;49.374;8.452;2023-02-03T20:59:31;101819.53;;;16.26
13497;BMP180;6820;49.374;8.452;2023-02-03T21:03:33;101828.09;;;16.26
13497;BMP180;6820;49.374;8.452;2023-02-03T21:07:53;101826.41;;;16.27
13497;BMP180;6820;49.374;8.452;2023-02-03T21:11:55;101841.66;;;16.25
13497;BMP180;6820;49.374;8.452;2023-02-03T21:15:58;101847.69;;;16.26
13497;BMP180;6820;49.374;8.452;2023-02-03T21:20:17;101841.78;;;16.27
13497;BMP180;6820;49.374;8.452;2023-02-03T21:24:24;101845.22;;;16.27
13497;BMP180;6820;49.374;8.452;2023-02-03T21:28:27;101845.91;;;16.25
13497;BMP180;6820;49.374;8.452;2023-02-03T21:32:36;101845.13;;;16.26
13497;BMP180;6820;49.374;8.452;2023-02-03T21:36:38;101855.38;;;16.26
13497;BMP180;6820;49.374;8.452;2023-02-03T21:40:40;101854.44;;;16.25
13497;BMP180;6820;49.374;8.452;2023-02-03T21:44:43;101843.53;;;16.28
13497;BMP180;6820;49.374;8.452;2023-02-03T21:48:58;101855.56;;;16.29
13497;BMP180;6820;49.374;8.452;2023-02-03T21:57:13;101850.25;;;16.26
13497;BMP180;6820;49.374;8.452;2023-02-03T22:01:19;101847.69;;;16.26
13497;BMP180;6820;49.374;8.452;2023-02-03T22:05:23;101848.63;;;16.28
13497;BMP180;6820;49.374;8.452;2023-02-03T22:09:25;101853.25;;;16.33
13497;BMP180;6820;49.374;8.452;2023-02-03T22:13:27;101839.56;;;16.33
13497;BMP180;6820;49.374;8.452;2023-02-03T22:17:29;101848.81;;;16.31
13497;BMP180;6820;49.374;8.452;2023-02-03T22:21:31;101859.06;;;16.31
13497;BMP180;6820;49.374;8.452;2023-02-03T22:25:33;101867.72;;;16.33
13497;BMP180;6820;49.374;8.452;2023-02-03T22:29:34;101863.41;;;16.32
13497;BMP180;6820;49.374;8.452;2023-02-03T22:33:38;101871.16;;;16.33
13497;BMP180;6820;49.374;8.452;2023-02-03T22:37:40;101861.72;;;16.32
13497;BMP180;6820;49.374;8.452;2023-02-03T22:41:41;101876.28;;;16.33
13497;BMP180;6820;49.374;8.452;2023-02-03T22:45:43;101889.19;;;16.35
13497;BMP180;6820;49.374;8.452;2023-02-03T22:49:45;101885.81;;;16.36
13497;BMP180;6820;49.374;8.452;2023-02-03T22:53:46;101882.56;;;16.38
13497;BMP180;6820;49.374;8.452;2023-02-03T22:57:48;101891.81;;;16.36
13497;BMP180;6820;49.374;8.452;2023-02-03T23:01:50;101895.06;;;16.34
13497;BMP180;6820;49.374;8.452;2023-02-03T23:05:51;101905.22;;;16.32
13497;BMP180;6820;49.374;8.452;2023-02-03T23:09:53;101919.88;;;16.35
13497;BMP180;6820;49.374;8.452;2023-02-03T23:13:55;101924.13;;;16.34
13497;BMP180;6820;49.374;8.452;2023-02-03T23:17:56;101925.59;;;16.31
13497;BMP180;6820;49.374;8.452;2023-02-03T23:21:58;101924.44;;;16.26
13497;BMP180;6820;49.374;8.452;2023-02-03T23:26:00;101926.00;;;16.24
13497;BMP180;6820;49.374;8.452;2023-02-03T23:30:02;101927.78;;;16.25
13497;BMP180;6820;49.374;8.452;2023-02-03T23:34:04;101931.38;;;16.28
13497;BMP180;6820;49.374;8.452;2023-02-03T23:38:24;101939.97;;;16.29
13497;BMP180;6820;49.374;8.452;2023-02-03T23:42:26;101932.31;;;16.29
13497;BMP180;6820;49.374;8.452;2023-02-03T23:46:28;101925.59;;;16.31
13497;BMP180;6820;49.374;8.452;2023-02-03T23:50:29;101927.19;;;16.29
13497;BMP180;6820;49.374;8.452;2023-02-03T23:54:32;101936.72;;;16.31
13497;BMP180;6820;49.374;8.452;2023-02-03T23:58:33;101944.47;;;16.33
